• Join FlightAware (Why Join?)
  • Login
  • US Flag 
03:02AM EDT


 

Airport Tracker/Info


-or-


 

Live Flight TrackerFlight Track Log ✈ AEE126 ✈ 24-Apr-2013 ✈ LGAV / ATH - LGTS / SKG

Flight Track Log - Related Links

Times and Time Zones

All times are in EDT time to prevent confusion due to time zone crossing. See the AEE126 flight status page for this flight to view local times or setup timezone preferences in your user account.

Time Position Orientation Groundspeed Altitude Reporting Facility
EDT Latitude Longitude Course Direction KTS MPH feet Rate Location/Type
12:50PM 38.6747 23.6737 344° North  Level Estimated
12:51PM 38.8592 23.6052 344° North  Level Estimated
12:52PM 39.0437 23.5363 344° North  Level Estimated
12:53PM 39.2281 23.4670 344° North  Level Estimated
12:54PM 39.4124 23.3974 344° North  Level Estimated
12:55PM 39.5968 23.3274 344° North  Level Estimated
12:56PM 39.7811 23.2570 344° North  Level Estimated
12:57PM 39.9653 23.1863 344° North  Level Estimated
12:58PM 40.1495 23.1151 344° North  Level Estimated
12:59PM 40.3337 23.0436 344° North  Level Estimated
01:00PM 40.5178 22.9717 343° North  Level Estimated
01:01PM 40.5197 22.9709 343° North  Level Estimated
01:02PM 40.5197 22.9709 180° South  Level Estimated
01:03PM 40.5197 22.9709 180° South  Level Estimated
01:04PM 40.5197 22.9709 180° South  Level Estimated
01:05PM 40.5197 22.9709 180° South  Level Estimated
01:06PM 40.5197 22.9709 180° South  Level Estimated
01:07PM 40.5197 22.9709 180° South  Level Estimated
01:08PM 40.5197 22.9709 180° South  Level Estimated
01:09PM 40.5197 22.9709 180° South  Level Estimated
01:10PM 40.5197 22.9709 180° South  Level Estimated
01:11PM 40.5197 22.9709 180° South  Level Estimated
01:12PM 40.5197 22.9709 180° South  Level Estimated
01:13PM 40.5197 22.9709 180° South  Level Estimated
01:14PM 40.5197 22.9709 180° South  Level Estimated
01:15PM 40.5197 22.9709 180° South  Level Estimated
01:16PM 40.5197 22.9709 180° South  Level Estimated